< Typhoon 196614 1966 Season Typhoon 196616 >
Typhoon 196615 (WINNIE)
General InformationTrack Information on Google Maps || NewsDisaster Info.ResourceGoogle EarthGE AnimationAtom FeedGeoJSON
Detalied Best Track (Time Zone = UTC)
Year Month Day Hour Lat. Long. Pressure (hPa) Wind (kt) Class Image Chart
1966 8 18 06 27.9 132.0 998 0 2 -- Chart
1966 8 18 12 28.1 132.1 996 0 2 -- Chart
1966 8 18 18 28.1 131.9 996 0 2 -- Chart
1966 8 19 00 27.6 132.0 998 0 2 -- Chart
1966 8 19 06 27.0 132.0 998 0 2 -- Chart
1966 8 19 12 27.2 131.8 996 0 2 -- Chart
1966 8 19 18 27.2 131.7 996 0 2 -- Chart
1966 8 20 00 27.2 131.5 996 0 2 -- Chart
1966 8 20 06 27.2 131.3 994 0 2 -- Chart
1966 8 20 12 27.3 131.1 992 0 2 -- Chart
1966 8 20 18 27.4 130.9 988 0 2 -- Chart
1966 8 21 00 27.5 130.5 984 0 9 -- Chart
1966 8 21 06 27.6 130.2 984 0 9 -- Chart
1966 8 21 12 27.8 130.2 984 0 9 -- Chart
1966 8 21 18 27.8 131.7 984 0 9 -- Chart
1966 8 22 00 28.5 132.4 974 0 9 -- Chart
1966 8 22 06 29.4 132.4 970 0 9 -- Chart
1966 8 22 12 30.1 132.4 970 0 9 -- Chart
1966 8 22 18 31.1 131.8 975 0 9 -- Chart
1966 8 23 00 32.3 130.8 987 0 9 -- Chart
1966 8 23 06 32.8 129.8 988 0 9 -- Chart
1966 8 23 12 33.3 129.4 990 0 2 -- Chart
1966 8 23 18 33.6 128.6 992 0 2 -- Chart
1966 8 24 00 34.3 127.7 994 0 2 -- Chart
1966 8 24 06 35.0 127.0 994 0 2 -- Chart
1966 8 24 12 35.5 126.0 996 0 2 -- Chart
1966 8 24 18 36.0 125.0 996 0 2 -- Chart
1966 8 25 00 36.8 124.2 996 0 2 -- Chart
1966 8 25 06 37.5 123.5 1000 0 2 -- Chart
1966 8 25 12 38.2 122.9 1000 0 2 -- Chart
1966 8 25 18 38.7 122.4 1000 0 6 -- Chart
1966 8 26 00 40.0 122.0 1004 0 6 -- Chart
1966 8 26 06 41.5 121.8 1004 0 6 -- Chart
1966 8 26 12 43.0 122.1 1004 0 6 -- Chart
1966 8 26 18 45.0 123.5 1004 0 6 -- Chart
1966 8 27 00 46.0 125.0 1006 0 6 -- Chart
1966 8 27 06 47.0 126.0 1006 0 6 -- Chart
1966 8 27 12 47.2 127.0 1004 0 6 -- Chart
1966 8 27 18 47.2 129.0 1002 0 6 -- Chart
1966 8 28 00 47.0 131.0 1004 0 6 -- Chart
1966 8 28 06 47.0 135.0 1002 0 6 -- Chart
1966 8 28 12 46.0 137.0 1005 0 6 -- Chart
1966 8 28 18 46.0 140.1 1004 0 6 -- Chart
1966 8 29 00 46.0 143.0 1004 0 6 -- Chart
1966 8 29 06 46.0 144.5 1006 0 6 -- Chart
1966 8 29 12 46.0 145.0 1008 0 6 -- Chart
Japan Meteorological Agency Best Track Data | Correction Date : 2013-03-19
< Typhoon 196614 1966 Season Typhoon 196616 >

Help